Time;durP1;ratioP1;P1;durP2;ratioP2;P2;SDS_P1;SDS_P2;PMS_P1;PMS_P2;Temp;Humidity;BMP_temperature;BMP_pressure;BME280_temperature;BME280_humidity;BME280_pressure;Samples;Min_cycle;Max_cycle;Signal;HPM_P1;HPM_P2
2021/05/26 01:05:21;;;;;;;4.65;2.85;;;;;;;16.58;66.22;100438.42;1810795;77;22168;-63
2021/05/26 01:07:49;;;;;;;4.62;3.33;;;;;;;16.55;65.90;100441.66;1780723;80;21481;-64
2021/05/26 01:10:19;;;;;;;5.08;3.08;;;;;;;16.57;65.55;100439.50;1780839;80;21146;-63
2021/05/26 01:12:51;;;;;;;6.40;3.30;;;;;;;16.59;65.27;100440.11;1711558;83;21185;-63
2021/05/26 01:15:19;;;;;;;5.50;3.35;;;;;;;16.61;65.01;100437.41;1736911;82;21185;-63
2021/05/26 01:17:48;;;;;;;4.55;3.10;;;;;;;16.64;64.78;100431.41;1707687;84;21316;-63
2021/05/26 01:20:27;;;;;;;6.05;3.37;;;;;;;16.67;64.63;100434.27;1709304;82;21866;-63
2021/05/26 01:22:57;;;;;;;4.47;2.92;;;;;;;16.70;64.53;100433.80;1707658;84;21178;-63
2021/05/26 01:25:27;;;;;;;7.22;2.72;;;;;;;16.70;64.61;100422.73;1737034;82;21169;-62
2021/05/26 01:27:54;;;;;;;3.92;2.70;;;;;;;16.68;64.73;100424.89;1707782;84;21166;-63
2021/05/26 01:30:23;;;;;;;6.53;3.02;;;;;;;16.64;64.91;100417.58;1710120;82;21220;-63
2021/05/26 01:32:53;;;;;;;4.78;3.08;;;;;;;16.59;65.04;100413.30;1707596;84;21173;-63
2021/05/26 01:35:22;;;;;;;4.78;2.85;;;;;;;16.55;65.19;100417.61;1735915;82;21538;-64
2021/05/26 01:37:49;;;;;;;3.08;2.40;;;;;;;16.47;65.40;100417.41;1707578;83;21448;-62
2021/05/26 01:40:18;;;;;;;6.30;2.80;;;;;;;16.37;65.80;100414.91;1737099;82;21304;-62
2021/05/26 01:42:47;;;;;;;5.33;2.65;;;;;;;16.30;66.12;100421.08;1736970;82;21118;-63
2021/05/26 01:45:17;;;;;;;3.22;2.52;;;;;;;16.24;66.42;100427.52;1707630;84;21145;-63
2021/05/26 01:47:50;;;;;;;4.17;2.72;;;;;;;16.13;66.68;100425.00;1737217;82;21418;-63
2021/05/26 01:50:21;;;;;;;4.33;2.25;;;;;;;16.03;67.03;100422.80;1710768;82;21897;-63
2021/05/26 01:52:59;;;;;;;5.05;2.50;;;;;;;15.98;67.32;100426.80;1707537;84;21193;-64
2021/05/26 01:55:27;;;;;;;3.65;2.62;;;;;;;15.95;67.58;100425.03;1737178;82;21994;-63
2021/05/26 01:57:59;;;;;;;4.87;2.80;;;;;;;15.92;67.83;100425.50;1691251;84;21277;-63
2021/05/26 02:00:28;;;;;;;5.53;3.00;;;;;;;15.90;67.97;100427.12;1736149;82;21412;-64
2021/05/26 02:02:56;;;;;;;5.62;2.67;;;;;;;15.85;68.08;100429.73;1707541;83;21138;-62
2021/05/26 02:05:23;;;;;;;4.95;2.77;;;;;;;15.78;68.19;100422.06;1698395;83;21190;-62
2021/05/26 02:07:52;;;;;;;6.97;2.30;;;;;;;15.73;68.39;100419.16;1697212;84;21881;-62
2021/05/26 02:13:08;;;;;;;6.05;2.90;;;;;;;15.71;68.65;100413.86;1697431;84;21343;-64
2021/05/26 02:15:37;;;;;;;4.58;3.15;;;;;;;15.73;68.66;100410.86;1696893;84;21270;-64
2021/05/26 02:18:05;;;;;;;5.92;3.40;;;;;;;15.73;68.71;100408.10;1696851;84;21158;-63
2021/05/26 02:20:33;;;;;;;8.33;3.75;;;;;;;15.75;68.78;100400.42;1696789;84;21562;-63
2021/05/26 02:23:00;;;;;;;6.85;3.45;;;;;;;15.77;68.81;100404.64;1696786;84;21178;-63
2021/05/26 02:25:29;;;;;;;7.47;3.40;;;;;;;15.79;68.79;100401.65;1696830;84;21182;-63
2021/05/26 02:27:58;;;;;;;7.85;3.83;;;;;;;15.80;68.80;100401.95;1696428;84;21150;-63
2021/05/26 02:30:26;;;;;;;6.90;4.05;;;;;;;15.82;68.88;100404.79;1696746;84;21397;-64
2021/05/26 02:32:53;;;;;;;8.45;4.42;;;;;;;15.85;68.91;100404.86;1696742;84;22007;-63
2021/05/26 02:35:21;;;;;;;9.20;4.08;;;;;;;15.84;68.89;100408.70;1696765;84;21904;-63
2021/05/26 02:37:49;;;;;;;6.45;3.45;;;;;;;15.82;68.88;100412.23;1696743;84;21862;-63
2021/05/26 02:40:17;;;;;;;6.05;3.42;;;;;;;15.81;68.98;100411.93;1696758;84;21878;-63
2021/05/26 02:42:44;;;;;;;8.65;3.40;;;;;;;15.81;69.04;100422.45;1696844;84;21566;-63
2021/05/26 02:45:15;;;;;;;7.40;4.10;;;;;;;15.84;69.10;100430.80;1696528;83;21889;-63
2021/05/26 02:47:43;;;;;;;7.72;3.80;;;;;;;15.84;69.21;100428.05;1696814;84;21838;-64
2021/05/26 02:50:17;;;;;;;8.13;4.05;;;;;;;15.85;69.29;100426.97;1696783;84;21162;-63
2021/05/26 02:52:41;;;;;;;6.33;3.80;;;;;;;15.89;69.35;100429.58;1696520;84;21420;-64
2021/05/26 02:55:12;;;;;;;9.28;4.17;;;;;;;15.94;69.35;100431.11;1696846;84;21166;-63
2021/05/26 02:57:41;;;;;;;9.05;4.05;;;;;;;16.01;69.35;100431.86;1696717;84;21261;-63
2021/05/26 03:00:13;;;;;;;6.12;4.50;;;;;;;16.06;69.29;100428.40;1692633;84;22083;-63
2021/05/26 03:02:46;;;;;;;7.33;3.87;;;;;;;16.11;69.34;100433.53;1695454;84;21151;-63
2021/05/26 03:05:15;;;;;;;5.60;3.60;;;;;;;16.18;69.29;100427.91;1696711;84;22003;-63
2021/05/26 03:07:42;;;;;;;6.78;3.55;;;;;;;16.26;69.22;100435.07;1668704;84;21837;-64
2021/05/26 03:10:12;;;;;;;8.95;4.70;;;;;;;16.34;69.02;100421.75;1696746;84;21408;-64
2021/05/26 03:12:41;;;;;;;6.00;3.42;;;;;;;16.43;68.80;100421.73;1668868;84;21980;-64
2021/05/26 03:15:13;;;;;;;6.05;3.92;;;;;;;16.52;68.62;100415.31;1696698;84;21159;-64
2021/05/26 03:17:41;;;;;;;6.20;4.22;;;;;;;16.62;68.22;100394.84;1696840;84;21396;-63
2021/05/26 03:20:13;;;;;;;7.67;3.65;;;;;;;16.70;67.87;100383.45;1696837;84;21161;-63
2021/05/26 03:22:43;;;;;;;6.55;3.15;;;;;;;16.77;67.64;100385.57;1691196;84;21469;-63
2021/05/26 03:25:16;;;;;;;5.83;3.20;;;;;;;16.84;67.38;100400.67;1674592;84;21291;-62
2021/05/26 03:27:45;;;;;;;6.05;2.87;;;;;;;16.92;67.20;100387.05;1678394;84;21162;-64
2021/05/26 03:30:15;;;;;;;4.85;3.08;;;;;;;17.01;66.96;100396.15;1696784;84;21908;-63
2021/05/26 03:32:43;;;;;;;5.08;2.83;;;;;;;17.10;66.76;100399.41;1696727;84;21392;-64
2021/05/26 03:35:12;;;;;;;6.62;2.62;;;;;;;17.18;66.40;100389.89;1696919;84;22003;-62
2021/05/26 03:37:40;;;;;;;6.28;3.10;;;;;;;17.24;66.18;100393.92;1696799;84;21288;-65
2021/05/26 03:40:11;;;;;;;6.37;2.40;;;;;;;17.29;65.97;100403.73;1696760;84;21411;-64
2021/05/26 03:42:40;;;;;;;5.80;3.35;;;;;;;17.35;65.89;100416.61;1668493;84;21392;-64
2021/05/26 03:45:12;;;;;;;5.97;3.20;;;;;;;17.41;65.67;100428.11;1696839;84;21555;-64
2021/05/26 03:47:41;;;;;;;7.33;3.50;;;;;;;17.43;65.63;100428.70;1696827;84;21846;-63
2021/05/26 03:50:13;;;;;;;7.03;3.58;;;;;;;17.48;65.62;100435.45;1696707;84;21280;-64
2021/05/26 03:52:46;;;;;;;9.38;3.60;;;;;;;17.52;65.44;100449.11;1696736;84;21289;-65
2021/05/26 03:55:17;;;;;;;6.28;3.22;;;;;;;17.54;65.31;100457.48;1696897;84;21154;-63
2021/05/26 03:57:46;;;;;;;7.15;3.30;;;;;;;17.59;65.22;100455.41;1696762;84;21349;-62
2021/05/26 04:00:16;;;;;;;7.60;3.47;;;;;;;17.65;65.10;100459.43;1696715;84;21426;-63
2021/05/26 04:02:47;;;;;;;7.28;4.25;;;;;;;17.71;64.96;100461.27;1696667;84;21162;-62
2021/05/26 04:05:14;;;;;;;7.28;3.15;;;;;;;17.79;64.81;100468.36;1681151;84;21967;-63
2021/05/26 04:07:43;;;;;;;7.33;5.75;;;;;;;17.82;64.62;100480.89;1742662;82;21163;-63
2021/05/26 04:10:13;;;;;;;5.55;3.83;;;;;;;17.88;64.56;100471.59;1742573;82;21186;-64
2021/05/26 04:12:43;;;;;;;6.92;3.17;;;;;;;17.93;64.21;100478.09;1742539;82;21177;-65
2021/05/26 04:15:13;;;;;;;5.67;3.65;;;;;;;17.98;64.00;100482.91;1740327;82;21887;-64
2021/05/26 04:18:05;;;;;;;9.48;3.10;;;;;;;17.99;63.94;100479.89;1742652;82;21198;-65
2021/05/26 04:20:33;;;;;;;7.15;2.80;;;;;;;18.03;63.99;100488.02;1742525;82;21162;-63
2021/05/26 04:23:02;;;;;;;4.42;2.95;;;;;;;18.04;64.30;100485.55;1742476;82;21417;-62
2021/05/26 04:25:31;;;;;;;6.33;3.40;;;;;;;18.09;64.68;100486.73;1742494;82;21220;-64
2021/05/26 04:27:59;;;;;;;5.40;3.02;;;;;;;18.13;65.22;100483.23;1742762;82;21382;-63
2021/05/26 04:30:27;;;;;;;7.50;3.92;;;;;;;18.20;65.46;100486.70;1719062;82;21329;-64
2021/05/26 04:32:55;;;;;;;5.85;3.12;;;;;;;18.25;65.51;100479.06;1742435;82;21190;-63
2021/05/26 04:35:22;;;;;;;4.47;3.50;;;;;;;18.31;65.57;100479.47;1742480;82;21221;-63
2021/05/26 04:37:50;;;;;;;5.20;2.67;;;;;;;18.38;65.60;100476.84;1742486;82;21193;-64
2021/05/26 04:40:18;;;;;;;4.95;2.90;;;;;;;18.46;65.30;100474.22;1742488;82;21166;-63
2021/05/26 04:42:46;;;;;;;8.45;3.00;;;;;;;18.52;64.86;100467.67;1742425;82;21204;-63
2021/05/26 04:45:15;;;;;;;7.87;3.05;;;;;;;18.57;64.48;100465.00;1742450;82;21206;-64
2021/05/26 04:47:43;;;;;;;5.60;4.28;;;;;;;18.61;64.22;100476.44;1742375;82;21418;-62
2021/05/26 04:50:12;;;;;;;6.03;3.60;;;;;;;18.66;64.07;100480.73;1742433;82;21135;-62
2021/05/26 04:52:40;;;;;;;5.95;3.52;;;;;;;18.71;63.87;100475.82;1742487;82;21361;-65
2021/05/26 04:55:09;;;;;;;7.55;4.78;;;;;;;18.72;63.64;100471.41;1742368;82;21234;-64
2021/05/26 04:57:36;;;;;;;10.40;6.30;;;;;;;18.73;63.56;100471.70;1742579;82;21901;-63
2021/05/26 05:00:05;;;;;;;9.00;5.62;;;;;;;18.76;63.93;100477.30;1742370;82;21143;-63
2021/05/26 05:02:32;;;;;;;5.85;4.12;;;;;;;18.78;64.14;100477.89;1742509;82;21181;-62
2021/05/26 05:05:00;;;;;;;6.35;4.17;;;;;;;18.80;64.18;100479.88;1742245;82;21206;-63
2021/05/26 05:07:28;;;;;;;8.40;5.12;;;;;;;18.81;64.38;100480.17;1742389;82;21818;-63
2021/05/26 05:09:55;;;;;;;7.25;4.30;;;;;;;18.81;64.61;100482.95;1742363;82;21281;-63
2021/05/26 05:12:23;;;;;;;7.08;3.98;;;;;;;18.81;64.79;100473.23;1742407;82;21123;-65
2021/05/26 05:14:52;;;;;;;6.58;4.08;;;;;;;18.82;65.04;100480.47;1742313;82;21154;-64
2021/05/26 05:17:20;;;;;;;5.70;3.65;;;;;;;18.82;65.56;100475.76;1742442;82;21489;-63
2021/05/26 05:19:47;;;;;;;6.45;3.42;;;;;;;18.82;65.83;100488.25;1742343;82;21854;-63
2021/05/26 05:22:16;;;;;;;6.12;3.60;;;;;;;18.79;66.07;100484.59;1742412;82;21278;-64
2021/05/26 05:24:44;;;;;;;9.50;4.05;;;;;;;18.79;66.14;100487.91;1742441;82;22068;-63
2021/05/26 05:27:11;;;;;;;8.50;3.65;;;;;;;18.80;66.26;100477.94;1742411;82;21194;-63
2021/05/26 05:29:38;;;;;;;6.85;4.03;;;;;;;18.82;65.99;100480.47;1742418;82;21201;-64
2021/05/26 05:32:06;;;;;;;7.30;3.80;;;;;;;18.87;65.78;100487.53;1742433;82;21158;-66
2021/05/26 05:34:33;;;;;;;6.17;3.80;;;;;;;18.91;65.49;100485.94;1742445;82;21427;-63
2021/05/26 05:37:01;;;;;;;8.40;2.80;;;;;;;18.94;65.11;100494.61;1742343;82;21224;-64
2021/05/26 05:39:28;;;;;;;6.20;3.50;;;;;;;18.96;64.91;100492.97;1742384;82;21384;-62
2021/05/26 05:41:56;;;;;;;5.95;3.52;;;;;;;18.97;64.79;100491.33;1742365;82;21295;-64
2021/05/26 05:44:23;;;;;;;6.90;3.77;;;;;;;18.99;64.69;100502.19;1742360;82;21535;-64
2021/05/26 05:46:50;;;;;;;8.10;4.87;;;;;;;18.98;64.73;100506.05;1742287;82;21174;-63
2021/05/26 05:49:17;;;;;;;8.40;4.53;;;;;;;18.97;64.81;100502.98;1742330;82;21197;-63
2021/05/26 05:51:45;;;;;;;7.58;3.50;;;;;;;18.99;64.80;100495.24;1742596;82;21794;-62
2021/05/26 05:54:12;;;;;;;9.35;4.28;;;;;;;19.03;64.83;100495.04;1742369;82;21181;-63
2021/05/26 05:56:39;;;;;;;8.43;5.33;;;;;;;19.09;64.63;100490.41;1742338;82;21196;-63
2021/05/26 05:59:08;;;;;;;7.12;3.80;;;;;;;19.14;64.45;100489.95;1742369;82;21889;-63
2021/05/26 06:01:35;;;;;;;5.37;3.60;;;;;;;19.17;64.32;100497.78;1742462;82;21402;-63
2021/05/26 06:04:05;;;;;;;10.03;4.15;;;;;;;19.22;64.09;100506.20;1742287;82;21398;-63
2021/05/26 06:06:32;;;;;;;4.25;3.42;;;;;;;19.29;63.96;100504.09;1742411;82;21285;-64
2021/05/26 06:09:00;;;;;;;6.33;3.77;;;;;;;19.36;63.47;100506.70;1742504;82;21521;-63
2021/05/26 06:11:28;;;;;;;5.00;3.22;;;;;;;19.44;63.20;100511.84;1719304;82;21200;-63
2021/05/26 06:13:57;;;;;;;3.95;3.00;;;;;;;19.52;62.97;100507.82;1742453;82;21304;-64
2021/05/26 06:16:24;;;;;;;6.40;2.80;;;;;;;19.61;62.74;100513.28;1742466;82;21170;-63
2021/05/26 06:18:52;;;;;;;6.45;3.15;;;;;;;19.72;62.06;100506.77;1742552;82;21144;-64
2021/05/26 06:21:19;;;;;;;4.70;3.00;;;;;;;19.77;61.55;100503.23;1742369;82;21880;-63
2021/05/26 06:23:49;;;;;;;8.73;3.50;;;;;;;19.81;61.42;100508.02;1719211;82;21166;-64
2021/05/26 06:26:16;;;;;;;4.50;2.72;;;;;;;19.89;61.29;100510.91;1742456;82;21130;-64
2021/05/26 06:28:43;;;;;;;5.78;2.90;;;;;;;20.00;60.95;100506.33;1742388;82;21194;-63
2021/05/26 06:31:12;;;;;;;5.28;3.00;;;;;;;20.05;60.68;100513.35;1742434;82;21950;-63
2021/05/26 06:33:42;;;;;;;3.85;2.85;;;;;;;20.12;60.40;100523.74;1742365;82;21424;-64
2021/05/26 06:36:10;;;;;;;5.17;3.37;;;;;;;20.14;60.33;100524.33;1742388;82;21210;-63
2021/05/26 06:38:38;;;;;;;5.20;3.62;;;;;;;20.16;60.50;100520.77;1742395;82;21467;-63
2021/05/26 06:41:05;;;;;;;8.73;6.90;;;;;;;20.18;60.55;100521.35;1742413;82;21185;-64
2021/05/26 06:43:33;;;;;;;9.90;7.53;;;;;;;20.22;60.37;100526.14;1742509;82;21544;-65
2021/05/26 06:46:00;;;;;;;8.48;5.62;;;;;;;20.19;60.28;100528.59;1742439;82;21397;-64
2021/05/26 06:48:27;;;;;;;8.98;6.55;;;;;;;20.15;60.46;100533.80;1742552;82;21392;-64
2021/05/26 06:50:55;;;;;;;8.40;4.95;;;;;;;20.14;60.69;100527.11;1742430;82;21699;-63
2021/05/26 06:53:22;;;;;;;5.72;4.70;;;;;;;20.18;60.72;100529.15;1742464;82;21323;-63
2021/05/26 06:55:51;;;;;;;6.67;4.83;;;;;;;20.24;60.28;100532.84;1742529;82;21383;-70
2021/05/26 06:58:19;;;;;;;8.35;6.45;;;;;;;20.29;59.95;100532.06;1743430;82;21317;-69
2021/05/26 07:00:47;;;;;;;6.78;4.62;;;;;;;20.35;59.93;100536.05;1742736;82;21153;-68
2021/05/26 07:03:15;;;;;;;6.70;3.95;;;;;;;20.39;59.81;100530.80;1742366;82;21801;-69
2021/05/26 07:05:44;;;;;;;4.15;3.27;;;;;;;20.46;59.81;100528.14;1742184;82;21295;-68
2021/05/26 07:08:11;;;;;;;4.12;2.55;;;;;;;20.53;59.43;100518.20;1742149;82;21394;-68
2021/05/26 07:10:40;;;;;;;6.10;2.55;;;;;;;20.58;59.24;100533.56;1742133;82;21199;-69
2021/05/26 07:13:08;;;;;;;4.10;2.30;;;;;;;20.56;58.58;100532.98;1742242;82;21202;-69
2021/05/26 07:15:37;;;;;;;7.33;3.12;;;;;;;20.54;58.82;100542.99;1742389;82;21762;-69
2021/05/26 07:18:07;;;;;;;4.87;2.80;;;;;;;20.57;58.83;100543.86;1741112;82;21284;-68
2021/05/26 07:20:34;;;;;;;7.40;3.67;;;;;;;20.64;58.72;100553.95;1715424;81;21222;-69
2021/05/26 07:23:02;;;;;;;6.95;3.60;;;;;;;20.68;58.23;100549.55;1714972;83;21136;-69
2021/05/26 07:25:29;;;;;;;7.60;3.77;;;;;;;20.73;58.23;100558.80;1714820;83;21239;-68
2021/05/26 07:27:57;;;;;;;5.37;2.92;;;;;;;20.77;58.04;100558.58;1714100;83;21388;-68
2021/05/26 07:30:25;;;;;;;5.15;3.05;;;;;;;20.77;58.06;100564.70;1714072;83;21211;-70
2021/05/26 07:32:53;;;;;;;4.33;2.92;;;;;;;20.71;58.29;100557.38;1714675;81;21419;-70
2021/05/26 07:35:20;;;;;;;5.35;3.22;;;;;;;20.72;58.60;100557.67;1718980;82;21202;-70
2021/05/26 07:37:48;;;;;;;8.88;3.42;;;;;;;20.73;58.64;100562.14;1737122;82;21225;-69
2021/05/26 07:40:16;;;;;;;5.35;3.08;;;;;;;20.74;58.95;100562.44;1712944;83;21198;-69
2021/05/26 07:42:44;;;;;;;5.25;2.92;;;;;;;20.80;58.90;100564.17;1720344;82;21739;-69
2021/05/26 07:45:12;;;;;;;5.22;2.95;;;;;;;20.83;58.56;100561.73;1728163;82;21369;-69
2021/05/26 07:47:40;;;;;;;5.47;2.92;;;;;;;20.79;58.57;100566.66;1720350;81;22128;-70
2021/05/26 07:50:10;;;;;;;4.45;2.52;;;;;;;20.79;58.75;100560.55;1720299;81;21173;-70
2021/05/26 07:52:38;;;;;;;7.03;2.77;;;;;;;20.83;58.85;100567.86;1652972;84;21177;-67
2021/05/26 07:55:08;;;;;;;6.12;2.70;;;;;;;20.84;58.83;100562.58;1670262;84;21205;-72
2021/05/26 07:57:35;;;;;;;4.30;2.80;;;;;;;20.88;58.80;100560.95;1675427;84;21752;-73
2021/05/26 08:00:05;;;;;;;6.37;2.70;;;;;;;20.94;58.75;100571.05;1682554;84;21202;-69
2021/05/26 08:02:35;;;;;;;4.10;2.70;;;;;;;20.95;58.30;100576.91;1676110;84;21199;-72
2021/05/26 08:05:03;;;;;;;5.15;2.90;;;;;;;20.94;58.36;100574.38;1668339;84;21234;-73
2021/05/26 08:07:30;;;;;;;5.10;3.20;;;;;;;20.86;58.70;100581.27;1686827;84;21698;-69
2021/05/26 08:09:57;;;;;;;4.80;2.83;;;;;;;20.76;58.88;100585.29;1683632;84;21580;-71
2021/05/26 08:12:26;;;;;;;5.70;2.70;;;;;;;20.65;59.03;100591.29;1682105;84;21169;-70
2021/05/26 08:14:55;;;;;;;8.58;3.08;;;;;;;20.54;59.01;100587.53;1679182;84;21206;-71
2021/05/26 08:17:23;;;;;;;5.22;3.02;;;;;;;20.46;59.30;100587.98;1682356;85;21551;-68
2021/05/26 08:19:50;;;;;;;3.77;2.75;;;;;;;20.44;59.49;100593.52;1683193;85;21194;-68
2021/05/26 08:22:17;;;;;;;6.17;3.02;;;;;;;20.36;59.77;100603.13;1678890;85;21335;-69
2021/05/26 08:24:45;;;;;;;8.30;2.85;;;;;;;20.29;60.24;100591.34;1670505;85;21349;-70
2021/05/26 08:27:12;;;;;;;6.42;3.00;;;;;;;20.28;60.29;100593.83;1660871;85;21390;-69
2021/05/26 08:29:39;;;;;;;5.25;3.08;;;;;;;20.24;60.39;100592.11;1665520;85;21207;-73
2021/05/26 08:32:06;;;;;;;6.78;2.90;;;;;;;20.22;60.39;100598.48;1669438;85;21178;-72
2021/05/26 08:34:34;;;;;;;5.35;3.10;;;;;;;20.20;60.66;100596.51;1690160;85;21345;-71
2021/05/26 08:37:01;;;;;;;7.25;3.87;;;;;;;20.22;60.80;100587.91;1679995;84;21764;-72
2021/05/26 08:39:34;;;;;;;5.95;3.30;;;;;;;20.20;60.82;100588.71;1677612;84;21191;-74
2021/05/26 08:41:58;;;;;;;4.58;2.77;;;;;;;20.14;61.05;100587.77;1676518;85;21237;-73
2021/05/26 08:44:26;;;;;;;6.08;3.30;;;;;;;20.13;61.21;100583.84;1670572;85;21311;-75
2021/05/26 08:46:53;;;;;;;8.18;5.35;;;;;;;20.10;61.39;100581.03;1676299;85;21175;-71
2021/05/26 08:49:22;;;;;;;9.98;4.20;;;;;;;20.11;61.51;100581.88;1676155;85;21143;-75
2021/05/26 08:51:50;;;;;;;5.25;3.58;;;;;;;20.10;61.71;100589.37;1672789;85;21626;-71
2021/05/26 08:54:17;;;;;;;4.58;3.22;;;;;;;20.13;61.77;100586.08;1667838;85;21272;-76
2021/05/26 08:56:46;;;;;;;7.55;3.77;;;;;;;20.14;61.73;100593.88;1670263;85;21354;-74
2021/05/26 08:59:16;;;;;;;4.60;3.15;;;;;;;20.15;61.71;100592.78;1668806;85;21216;-75
2021/05/26 09:01:50;;;;;;;5.58;3.80;;;;;;;20.15;61.93;100594.17;1667300;85;21263;-74
2021/05/26 09:04:31;;;;;;;5.20;3.20;;;;;;;20.15;61.98;100598.34;1678295;85;21744;-74
2021/05/26 09:07:13;;;;;;;11.43;3.92;;;;;;;20.12;62.09;100604.42;1649305;86;21186;-73
2021/05/26 09:09:55;;;;;;;5.22;3.62;;;;;;;20.05;62.32;100597.64;1640993;86;21219;-72
2021/05/26 09:12:29;;;;;;;5.47;3.55;;;;;;;20.04;62.48;100602.08;1692784;84;21313;-78
2021/05/26 09:15:08;;;;;;;10.25;4.15;;;;;;;20.03;62.66;100598.45;1664155;86;21162;-71
2021/05/26 09:17:35;;;;;;;6.12;3.72;;;;;;;20.00;62.76;100598.96;1693526;83;21588;-71
2021/05/26 09:20:25;;;;;;;10.15;3.95;;;;;;;19.98;63.02;100602.55;1642663;86;21255;-72
2021/05/26 09:23:10;;;;;;;8.33;3.50;;;;;;;19.91;63.25;100602.72;1696680;84;21735;-71
2021/05/26 09:25:49;;;;;;;6.00;4.12;;;;;;;19.84;63.58;100603.45;1667246;86;21456;-71
2021/05/26 09:28:34;;;;;;;7.53;4.10;;;;;;;19.80;63.88;100597.25;1696989;83;21865;-70
2021/05/26 09:31:08;;;;;;;7.62;4.33;;;;;;;19.75;64.18;100602.73;1698133;83;21280;-69
2021/05/26 09:33:44;;;;;;;7.55;4.60;;;;;;;19.72;64.58;100597.13;1697003;84;21660;-71
2021/05/26 09:36:24;;;;;;;7.87;4.80;;;;;;;19.76;64.61;100603.03;1668289;86;21843;-70
2021/05/26 09:38:59;;;;;;;7.60;4.62;;;;;;;19.79;64.62;100598.35;1693522;84;21242;-69
2021/05/26 09:41:34;;;;;;;6.65;3.92;;;;;;;19.84;64.38;100602.06;1694759;84;21186;-68
2021/05/26 09:44:10;;;;;;;7.53;4.72;;;;;;;19.88;64.85;100602.39;1664846;86;21296;-69
2021/05/26 09:46:37;;;;;;;6.33;4.90;;;;;;;19.89;65.46;100613.27;1665104;86;21190;-76
2021/05/26 09:49:09;;;;;;;8.65;5.00;;;;;;;19.82;66.23;100613.14;1667155;86;21185;-68
2021/05/26 09:51:50;;;;;;;8.73;4.70;;;;;;;19.76;66.92;100611.38;1664984;86;21612;-68
2021/05/26 09:54:26;;;;;;;10.25;4.67;;;;;;;19.75;66.96;100614.70;1697279;83;21171;-75
2021/05/26 09:57:07;;;;;;;6.78;4.70;;;;;;;19.69;67.11;100609.31;1667292;86;21961;-73
2021/05/26 09:59:35;;;;;;;8.28;4.80;;;;;;;19.72;67.34;100619.92;1667315;86;21724;-73
2021/05/26 10:02:07;;;;;;;9.03;4.50;;;;;;;19.73;66.79;100620.22;1667350;86;21234;-73
2021/05/26 10:04:36;;;;;;;8.98;4.90;;;;;;;19.68;66.85;100618.74;1667259;86;21230;-72
2021/05/26 10:07:23;;;;;;;6.30;4.03;;;;;;;19.66;66.93;100623.72;1712960;82;21728;-76
2021/05/26 10:09:52;;;;;;;6.40;4.28;;;;;;;19.62;67.03;100630.33;1735776;81;21160;-70
2021/05/26 10:12:22;;;;;;;5.72;4.75;;;;;;;19.60;67.20;100636.14;1719559;82;21155;-70
2021/05/26 10:14:51;;;;;;;8.60;4.92;;;;;;;19.57;67.43;100639.97;1732739;82;21276;-69
2021/05/26 10:17:23;;;;;;;7.85;5.08;;;;;;;19.56;67.57;100643.30;1741500;82;21775;-69
2021/05/26 10:19:50;;;;;;;9.18;4.75;;;;;;;19.54;67.66;100649.66;1741251;81;21163;-70
2021/05/26 10:22:19;;;;;;;8.15;4.60;;;;;;;19.57;67.75;100634.41;1742612;81;21321;-69
2021/05/26 10:24:48;;;;;;;8.55;4.83;;;;;;;19.63;67.62;100636.19;1722506;81;21825;-76
2021/05/26 10:27:35;;;;;;;7.53;5.22;;;;;;;19.69;67.54;100639.89;1721050;83;21154;-73
2021/05/26 10:30:09;;;;;;;6.95;5.58;;;;;;;19.67;67.75;100635.97;1717661;82;21196;-77
2021/05/26 10:32:58;;;;;;;8.68;5.17;;;;;;;19.67;68.79;100639.30;1713304;83;21628;-69
2021/05/26 10:35:28;;;;;;;8.80;4.22;;;;;;;19.69;68.96;100639.34;1739448;82;21330;-71
2021/05/26 10:38:06;;;;;;;10.85;5.85;;;;;;;19.67;69.36;100643.47;1720223;82;21396;-71
2021/05/26 10:40:37;;;;;;;7.20;5.87;;;;;;;19.65;70.12;100631.77;1723369;82;21162;-71
2021/05/26 10:43:23;;;;;;;11.88;7.28;;;;;;;19.63;70.23;100643.98;1717951;83;21202;-73
2021/05/26 10:45:53;;;;;;;13.35;8.60;;;;;;;19.59;70.82;100637.78;1713431;83;21231;-74
2021/05/26 10:48:53;;;;;;;9.15;7.05;;;;;;;19.55;71.39;100631.04;1723508;81;21193;-72
2021/05/26 10:51:51;;;;;;;7.80;4.87;;;;;;;19.57;71.71;100633.02;1723974;81;21221;-76
2021/05/26 10:54:44;;;;;;;7.15;5.37;;;;;;;19.59;71.65;100629.44;1733765;81;21900;-79
2021/05/26 10:57:12;;;;;;;9.25;5.37;;;;;;;19.65;72.31;100633.16;1724188;81;21649;-74
2021/05/26 10:59:40;;;;;;;7.97;5.60;;;;;;;19.71;72.39;100635.77;1725652;81;22051;-75
2021/05/26 11:02:09;;;;;;;8.10;5.55;;;;;;;19.75;71.61;100633.32;1720640;82;21185;-72
2021/05/26 11:04:40;;;;;;;9.73;5.17;;;;;;;19.74;71.09;100632.48;1718460;82;21150;-80
2021/05/26 11:07:30;;;;;;;8.88;5.28;;;;;;;19.70;71.19;100626.28;1716099;82;21146;-79
2021/05/26 11:10:01;;;;;;;5.90;5.25;;;;;;;19.70;71.39;100624.34;1719524;82;21324;-79
2021/05/26 11:12:50;;;;;;;6.50;4.83;;;;;;;19.70;71.46;100629.06;1727939;82;21192;-79
2021/05/26 11:15:44;;;;;;;7.67;4.97;;;;;;;19.69;71.09;100624.60;1741403;82;21171;-76
2021/05/26 11:18:29;;;;;;;6.95;5.58;;;;;;;19.62;70.83;100615.88;1728188;82;21358;-76
2021/05/26 11:20:49;;;;;;;7.78;5.22;;;;;;;19.57;71.28;100610.78;1715894;82;21290;-77
2021/05/26 11:23:19;;;;;;;8.50;5.22;;;;;;;19.60;71.02;100618.62;1724908;82;21154;-76
2021/05/26 11:25:56;;;;;;;7.83;5.17;;;;;;;19.62;71.02;100615.04;1741411;82;21123;-76
2021/05/26 11:28:32;;;;;;;8.13;5.45;;;;;;;19.61;70.68;100610.02;1723396;81;21162;-76
2021/05/26 11:31:05;;;;;;;9.43;7.08;;;;;;;19.62;71.12;100615.04;1722869;82;21296;-73
2021/05/26 11:33:36;;;;;;;7.67;5.97;;;;;;;19.61;71.41;100612.80;1718023;82;21301;-78
2021/05/26 11:36:06;;;;;;;10.00;5.95;;;;;;;19.59;71.27;100610.83;1738394;82;21166;-76
2021/05/26 11:38:34;;;;;;;9.35;6.17;;;;;;;19.56;71.19;100608.55;1732762;82;21219;-74
2021/05/26 11:41:17;;;;;;;8.58;6.67;;;;;;;19.52;71.40;100607.88;1722530;82;21167;-74
2021/05/26 11:43:47;;;;;;;10.18;7.08;;;;;;;19.54;71.62;100609.89;1718021;82;21203;-76
2021/05/26 11:46:15;;;;;;;11.48;8.43;;;;;;;19.55;71.77;100607.41;1718985;81;21643;-75
2021/05/26 11:48:48;;;;;;;9.60;7.42;;;;;;;19.54;71.87;100607.12;1724045;81;21452;-77
2021/05/26 11:51:25;;;;;;;11.00;7.00;;;;;;;19.56;71.95;100606.31;1724105;82;21209;-75
2021/05/26 11:53:55;;;;;;;11.43;7.45;;;;;;;19.56;72.08;100604.92;1724154;82;21158;-72
2021/05/26 11:56:25;;;;;;;12.47;7.33;;;;;;;19.57;71.91;100597.72;1735782;82;21326;-73
2021/05/26 11:58:54;;;;;;;14.28;7.85;;;;;;;19.62;72.06;100591.41;1721377;82;21194;-73
2021/05/26 12:01:30;;;;;;;15.13;8.40;;;;;;;19.67;72.17;100588.70;1699069;82;21480;-76
2021/05/26 12:04:01;;;;;;;18.48;11.15;;;;;;;19.68;72.00;100589.55;1738878;82;21205;-74
2021/05/26 12:06:44;;;;;;;18.00;10.58;;;;;;;19.69;72.10;100592.08;1693607;82;21421;-73
2021/05/26 12:09:29;;;;;;;22.58;14.43;;;;;;;19.68;71.79;100593.17;1696384;83;21194;-73
2021/05/26 12:12:16;;;;;;;14.05;9.28;;;;;;;19.71;72.05;100595.45;1710252;83;21311;-80
2021/05/26 12:14:47;;;;;;;14.73;8.63;;;;;;;19.72;71.56;100602.70;1712026;82;21163;-79
2021/05/26 12:17:20;;;;;;;10.78;8.18;;;;;;;19.72;71.61;100596.30;1697499;82;21187;-76
2021/05/26 12:19:53;;;;;;;10.05;6.95;;;;;;;19.70;71.38;100598.48;1709009;83;21965;-76
2021/05/26 12:22:26;;;;;;;11.93;8.33;;;;;;;19.69;71.34;100610.16;1702786;82;21353;-79
2021/05/26 12:25:01;;;;;;;12.20;7.75;;;;;;;19.68;71.26;100604.84;1702090;83;21145;-76
2021/05/26 12:27:43;;;;;;;11.35;7.55;;;;;;;19.71;71.26;100600.17;1683701;83;21870;-79
2021/05/26 12:34:58;;;;;;;12.37;7.95;;;;;;;19.77;71.04;100611.67;1703609;82;21146;-76
2021/05/26 12:37:41;;;;;;;8.85;6.72;;;;;;;19.76;71.00;100616.38;1671906;83;21136;-75
2021/05/26 12:40:12;;;;;;;8.85;6.72;;;;;;;19.75;70.85;100616.09;1708592;82;21889;-74
2021/05/26 12:42:42;;;;;;;11.28;8.08;;;;;;;19.75;70.93;100613.31;1718247;82;21796;-77
2021/05/26 12:45:27;;;;;;;9.53;7.35;;;;;;;19.75;71.02;100610.53;1707281;83;21318;-81
2021/05/26 12:47:57;;;;;;;9.18;6.95;;;;;;;19.77;70.92;100613.90;1696663;83;21190;-77
2021/05/26 12:50:30;;;;;;;10.85;7.08;;;;;;;19.77;70.40;100620.85;1693802;83;21392;-77
2021/05/26 12:53:09;;;;;;;8.78;5.55;;;;;;;19.73;70.35;100619.67;1698347;84;21182;-78